createdAt,value
2023-02-25T00:00:10.538Z,3.00
2023-02-25T00:01:33.408Z,2.90
2023-02-25T00:02:55.502Z,2.90
2023-02-25T00:04:18.437Z,2.90
2023-02-25T00:05:41.244Z,2.90
2023-02-25T00:07:03.693Z,2.90
2023-02-25T00:08:25.804Z,2.90
2023-02-25T00:09:47.849Z,3.00
2023-02-25T00:11:09.923Z,3.00
2023-02-25T00:12:32.091Z,3.10
2023-02-25T00:13:55.371Z,3.10
2023-02-25T00:15:17.580Z,3.10
2023-02-25T00:16:39.722Z,3.10
2023-02-25T00:18:01.791Z,3.00
2023-02-25T00:19:25.280Z,3.10
2023-02-25T00:20:47.664Z,3.10
2023-02-25T00:22:09.707Z,3.10
2023-02-25T00:23:31.909Z,3.10
2023-02-25T00:24:57.572Z,3.10
2023-02-25T00:26:20.312Z,3.10
2023-02-25T00:27:43.284Z,3.10
2023-02-25T00:29:06.072Z,3.20
2023-02-25T00:30:28.104Z,3.10
2023-02-25T00:31:50.386Z,3.10
2023-02-25T00:33:12.497Z,3.10
2023-02-25T00:34:34.623Z,3.10
2023-02-25T00:35:56.653Z,3.10
2023-02-25T00:37:18.800Z,3.20
2023-02-25T00:38:41.371Z,3.20
2023-02-25T00:40:06.463Z,3.20
2023-02-25T00:41:30.803Z,3.20
2023-02-25T00:42:53.060Z,3.20
2023-02-25T00:44:15.267Z,3.20
2023-02-25T00:45:39.588Z,3.20
2023-02-25T00:47:01.632Z,3.20
2023-02-25T00:48:23.679Z,3.10
2023-02-25T00:49:49.062Z,3.10
2023-02-25T00:51:17.348Z,3.10
2023-02-25T00:52:39.554Z,3.00
2023-02-25T00:54:01.687Z,3.00
2023-02-25T00:55:23.855Z,3.00
2023-02-25T00:56:45.936Z,3.00
2023-02-25T00:58:07.956Z,3.00
2023-02-25T00:59:29.986Z,3.00
2023-02-25T01:00:52.291Z,3.00
2023-02-25T01:02:14.338Z,3.00
2023-02-25T01:03:36.401Z,3.00
2023-02-25T01:04:58.562Z,3.00
2023-02-25T01:06:21.199Z,3.00
2023-02-25T01:07:43.888Z,3.00
2023-02-25T01:09:13.729Z,3.00
2023-02-25T01:10:35.847Z,3.00
2023-02-25T01:11:58.034Z,3.00
2023-02-25T01:13:20.058Z,3.10
2023-02-25T01:14:42.896Z,3.10
2023-02-25T01:16:11.382Z,3.10
2023-02-25T01:17:33.423Z,3.10
2023-02-25T01:18:57.952Z,3.20
2023-02-25T01:20:22.378Z,3.20
2023-02-25T01:21:46.551Z,3.20
2023-02-25T01:23:08.742Z,3.20
2023-02-25T01:24:32.739Z,3.20
2023-02-25T01:25:54.787Z,3.20
2023-02-25T01:27:16.829Z,3.30
2023-02-25T01:28:38.932Z,3.30
2023-02-25T01:30:01.070Z,3.30
2023-02-25T01:31:32.881Z,3.30
2023-02-25T01:32:55.104Z,3.40
2023-02-25T01:34:18.575Z,3.40
2023-02-25T01:35:40.605Z,3.40
2023-02-25T01:37:03.763Z,3.40
2023-02-25T01:38:25.767Z,3.40
2023-02-25T01:39:47.825Z,3.40
2023-02-25T01:41:10.017Z,3.40
2023-02-25T01:42:32.094Z,3.40
2023-02-25T01:44:10.839Z,3.40
2023-02-25T01:45:33.206Z,3.30
2023-02-25T01:46:55.675Z,3.30
2023-02-25T01:48:20.593Z,3.30
2023-02-25T01:49:46.238Z,3.20
2023-02-25T01:51:12.938Z,3.20
2023-02-25T01:52:36.232Z,3.20
2023-02-25T01:53:59.309Z,3.10
2023-02-25T01:55:21.415Z,3.10
2023-02-25T01:56:48.522Z,3.10
2023-02-25T01:58:12.266Z,3.00
2023-02-25T01:59:35.605Z,3.00
2023-02-25T02:00:57.828Z,3.00
2023-02-25T02:02:22.416Z,3.00
2023-02-25T02:03:44.781Z,3.00
2023-02-25T02:05:07.423Z,2.90
2023-02-25T02:06:40.097Z,2.90
2023-02-25T02:08:02.676Z,2.80
2023-02-25T02:09:28.296Z,2.80
2023-02-25T02:10:50.378Z,2.70
2023-02-25T02:12:12.561Z,2.70
2023-02-25T02:13:37.400Z,2.70
2023-02-25T02:15:02.301Z,2.70
2023-02-25T02:16:44.115Z,2.70
2023-02-25T02:18:07.470Z,2.70
2023-02-25T02:19:47.301Z,2.70
2023-02-25T02:21:18.674Z,2.60
2023-02-25T02:22:46.865Z,2.70
2023-02-25T02:24:43.356Z,2.70
2023-02-25T02:26:11.548Z,2.60
2023-02-25T02:27:55.361Z,2.60
2023-02-25T02:30:10.928Z,2.60
2023-02-25T02:31:43.994Z,2.60
2023-02-25T02:33:49.946Z,2.60
2023-02-25T02:35:20.694Z,2.50
2023-02-25T02:37:01.790Z,2.50
2023-02-25T02:38:35.412Z,2.50
2023-02-25T02:40:41.773Z,2.50
2023-02-25T02:42:21.232Z,2.50
2023-02-25T02:43:54.460Z,2.40
2023-02-25T02:45:30.779Z,2.40
2023-02-25T02:47:11.343Z,2.40
2023-02-25T02:49:06.599Z,2.40
2023-02-25T02:50:39.458Z,2.40
2023-02-25T02:52:09.386Z,2.40
2023-02-25T02:53:53.738Z,2.40
2023-02-25T02:55:32.267Z,2.40
2023-02-25T02:56:57.202Z,2.40
2023-02-25T02:58:32.005Z,2.50
2023-02-25T03:00:00.038Z,2.50
2023-02-25T03:01:31.692Z,2.50
2023-02-25T03:03:02.586Z,2.40
2023-02-25T03:04:30.197Z,2.40
2023-02-25T03:05:53.931Z,2.40
2023-02-25T03:07:18.014Z,2.40
2023-02-25T03:08:47.359Z,2.40
2023-02-25T03:10:13.651Z,2.40
2023-02-25T03:11:35.991Z,2.40
2023-02-25T03:12:58.158Z,2.50
2023-02-25T03:14:20.240Z,2.40
2023-02-25T03:15:43.999Z,2.50
2023-02-25T03:17:20.576Z,2.40
2023-02-25T03:19:08.290Z,2.40
2023-02-25T03:20:37.392Z,2.40
2023-02-25T03:22:13.800Z,2.40
2023-02-25T03:23:40.359Z,2.40
2023-02-25T03:25:21.971Z,2.40
2023-02-25T03:26:44.063Z,2.40
2023-02-25T03:28:26.622Z,2.40
2023-02-25T03:29:48.987Z,2.40
2023-02-25T03:31:29.635Z,2.40
2023-02-25T03:32:57.481Z,2.30
2023-02-25T03:34:25.322Z,2.30
2023-02-25T03:35:50.730Z,2.30
2023-02-25T03:37:26.615Z,2.30
2023-02-25T03:38:52.934Z,2.30
2023-02-25T03:40:16.870Z,2.30
2023-02-25T03:41:42.289Z,2.30
2023-02-25T03:43:14.034Z,2.30
2023-02-25T03:44:42.364Z,2.30
2023-02-25T03:46:05.724Z,2.20
2023-02-25T03:47:30.467Z,2.20
2023-02-25T03:48:54.425Z,2.20
2023-02-25T03:50:25.911Z,2.20
2023-02-25T03:51:49.149Z,2.20
2023-02-25T03:53:12.346Z,2.20
2023-02-25T03:54:34.400Z,2.20
2023-02-25T03:55:58.748Z,2.20
2023-02-25T03:57:25.023Z,2.20
2023-02-25T03:58:47.156Z,2.20
2023-02-25T04:00:18.892Z,2.20
2023-02-25T04:01:43.464Z,2.20
2023-02-25T04:03:05.653Z,2.20
2023-02-25T04:04:28.158Z,2.20
2023-02-25T04:05:50.179Z,2.20
2023-02-25T04:07:12.199Z,2.20
2023-02-25T04:08:34.267Z,2.20
2023-02-25T04:09:56.348Z,2.20
2023-02-25T04:11:18.379Z,2.20
2023-02-25T04:12:40.793Z,2.20
2023-02-25T04:14:02.827Z,2.20
2023-02-25T04:15:27.595Z,2.20
2023-02-25T04:16:49.888Z,2.20
2023-02-25T04:18:13.218Z,2.20
2023-02-25T04:19:35.297Z,2.20
2023-02-25T04:20:57.320Z,2.20
2023-02-25T04:22:19.336Z,2.20
2023-02-25T04:23:41.362Z,2.20
2023-02-25T04:25:03.669Z,2.20
2023-02-25T04:26:26.130Z,2.20
2023-02-25T04:27:48.292Z,2.20
2023-02-25T04:29:10.430Z,2.20
2023-02-25T04:30:34.270Z,2.20
2023-02-25T04:31:56.973Z,2.20
2023-02-25T04:33:19.121Z,2.20
2023-02-25T04:34:41.395Z,2.20
2023-02-25T04:36:03.611Z,2.20
2023-02-25T04:37:25.629Z,2.20
2023-02-25T04:38:47.671Z,2.20
2023-02-25T04:40:20.982Z,2.20
2023-02-25T04:41:43.059Z,2.20
2023-02-25T04:43:05.170Z,2.10
2023-02-25T04:44:27.339Z,2.10
2023-02-25T04:45:49.382Z,2.10
2023-02-25T04:47:11.399Z,2.10
2023-02-25T04:48:33.435Z,2.10
2023-02-25T04:49:55.452Z,2.10
2023-02-25T04:51:17.843Z,2.10
2023-02-25T04:52:40.151Z,2.00
2023-02-25T04:54:02.251Z,2.00
2023-02-25T04:55:24.335Z,2.00
2023-02-25T04:56:47.195Z,2.00
2023-02-25T04:58:10.332Z,2.00
2023-02-25T04:59:32.742Z,1.90
2023-02-25T05:00:57.674Z,1.90
2023-02-25T05:02:20.174Z,1.90
2023-02-25T05:03:42.425Z,1.90
2023-02-25T05:05:04.903Z,1.90
2023-02-25T05:06:27.916Z,1.90
2023-02-25T05:07:49.910Z,1.80
2023-02-25T05:09:11.985Z,1.80
2023-02-25T05:10:34.004Z,1.80
2023-02-25T05:11:56.085Z,1.70
2023-02-25T05:13:19.355Z,1.70
2023-02-25T05:14:41.521Z,1.70
2023-02-25T05:16:05.444Z,1.70
2023-02-25T05:17:27.536Z,1.70
2023-02-25T05:18:49.713Z,1.70
2023-02-25T05:20:12.954Z,1.60
2023-02-25T05:21:35.220Z,1.60
2023-02-25T05:22:57.337Z,1.60
2023-02-25T05:24:19.911Z,1.60
2023-02-25T05:25:41.956Z,1.50
2023-02-25T05:27:09.034Z,1.50
2023-02-25T05:28:31.103Z,1.50
2023-02-25T05:29:54.674Z,1.50
2023-02-25T05:31:17.008Z,1.50
2023-02-25T05:32:39.717Z,1.50
2023-02-25T05:34:01.953Z,1.60
2023-02-25T05:35:24.084Z,1.60
2023-02-25T05:36:46.767Z,1.50
2023-02-25T05:38:08.927Z,1.50
2023-02-25T05:39:31.259Z,1.50
2023-02-25T05:40:53.558Z,1.40
2023-02-25T05:42:15.628Z,1.30
2023-02-25T05:43:38.559Z,1.30
2023-02-25T05:45:00.655Z,1.20
2023-02-25T05:46:23.112Z,1.20
2023-02-25T05:47:45.389Z,1.20
2023-02-25T05:49:07.463Z,1.20
2023-02-25T05:50:31.684Z,1.10
2023-02-25T05:51:53.741Z,1.10
2023-02-25T05:53:16.417Z,1.10
2023-02-25T05:54:38.456Z,1.10
2023-02-25T05:56:04.743Z,1.10
2023-02-25T05:57:26.910Z,1.10
2023-02-25T05:58:49.436Z,1.10
2023-02-25T06:00:14.821Z,1.10
2023-02-25T06:01:37.067Z,1.10
2023-02-25T06:02:59.152Z,1.10
2023-02-25T06:04:22.140Z,1.10
2023-02-25T06:05:45.676Z,1.10
2023-02-25T06:07:09.611Z,1.10
2023-02-25T06:08:31.697Z,1.10
2023-02-25T06:09:55.030Z,1.10
2023-02-25T06:11:29.250Z,1.10
2023-02-25T06:12:51.384Z,1.10
2023-02-25T06:14:14.930Z,1.00
2023-02-25T06:15:38.614Z,1.00
2023-02-25T06:17:01.589Z,1.10
2023-02-25T06:18:23.626Z,1.10
2023-02-25T06:19:45.735Z,1.10
2023-02-25T06:21:10.237Z,1.10
2023-02-25T06:22:32.655Z,1.10
2023-02-25T06:23:54.731Z,1.10
2023-02-25T06:25:17.149Z,1.10
2023-02-25T06:26:41.782Z,1.10
2023-02-25T06:28:04.045Z,1.10
2023-02-25T06:29:26.055Z,1.10
2023-02-25T06:30:48.410Z,1.10
2023-02-25T06:32:14.435Z,1.10
2023-02-25T06:33:37.472Z,1.00
2023-02-25T06:34:59.514Z,1.00
2023-02-25T06:36:22.075Z,1.10
2023-02-25T06:37:44.752Z,1.00
2023-02-25T06:39:07.995Z,1.00
2023-02-25T06:40:30.099Z,1.00
2023-02-25T06:41:52.282Z,1.00
2023-02-25T06:43:14.590Z,1.10
2023-02-25T06:44:36.757Z,1.10
2023-02-25T06:45:58.828Z,1.10
2023-02-25T06:47:22.815Z,1.10
2023-02-25T06:48:44.866Z,1.00
2023-02-25T06:50:08.220Z,1.10
2023-02-25T06:51:30.276Z,1.10
2023-02-25T06:52:52.461Z,1.10
2023-02-25T06:54:14.681Z,1.10
2023-02-25T06:55:39.311Z,1.10
2023-02-25T06:57:01.409Z,1.10
2023-02-25T06:58:23.549Z,1.10
2023-02-25T06:59:45.673Z,1.10
2023-02-25T07:01:13.992Z,1.20
2023-02-25T07:02:36.223Z,1.20
2023-02-25T07:03:58.271Z,1.10
2023-02-25T07:05:20.333Z,1.10
2023-02-25T07:06:42.500Z,1.10
2023-02-25T07:08:04.857Z,1.10
2023-02-25T07:09:26.913Z,1.10
2023-02-25T07:10:48.939Z,1.00
2023-02-25T07:12:10.951Z,1.00
2023-02-25T07:13:32.948Z,1.10
2023-02-25T07:14:54.943Z,1.10
2023-02-25T07:16:17.611Z,1.10
2023-02-25T07:17:39.713Z,1.10
2023-02-25T07:19:04.782Z,1.10
2023-02-25T07:20:26.902Z,1.20
2023-02-25T07:21:49.723Z,1.10
2023-02-25T07:23:11.823Z,1.10
2023-02-25T07:24:33.876Z,1.10
2023-02-25T07:25:55.868Z,1.10
2023-02-25T07:27:17.946Z,1.20
2023-02-25T07:28:40.761Z,1.20
2023-02-25T07:30:02.957Z,1.20
2023-02-25T07:31:26.760Z,1.20
2023-02-25T07:32:49.142Z,1.10
2023-02-25T07:34:11.276Z,1.10
2023-02-25T07:35:34.005Z,1.20
2023-02-25T07:36:56.081Z,1.20
2023-02-25T07:38:18.095Z,1.20
2023-02-25T07:39:40.149Z,1.20
2023-02-25T07:41:10.516Z,1.20
2023-02-25T07:42:32.689Z,1.20
2023-02-25T07:43:55.263Z,1.20
2023-02-25T07:45:17.640Z,1.30
2023-02-25T07:46:40.988Z,1.30
2023-02-25T07:48:03.116Z,1.30
2023-02-25T07:49:25.133Z,1.30
2023-02-25T07:50:47.172Z,1.30
2023-02-25T07:52:09.386Z,1.30
2023-02-25T07:53:31.464Z,1.30
2023-02-25T07:54:53.529Z,1.30
2023-02-25T07:56:17.135Z,1.30
2023-02-25T07:57:39.216Z,1.20
2023-02-25T07:59:01.485Z,1.30
2023-02-25T08:00:23.702Z,1.30
2023-02-25T08:01:46.060Z,1.20
2023-02-25T08:03:08.815Z,1.30
2023-02-25T08:04:31.095Z,1.30
2023-02-25T08:05:54.264Z,1.20
2023-02-25T08:07:16.602Z,1.30
2023-02-25T08:08:38.683Z,1.30
2023-02-25T08:10:00.789Z,1.30
2023-02-25T08:11:24.962Z,1.20
2023-02-25T08:12:47.272Z,1.20
2023-02-25T08:14:09.352Z,1.20
2023-02-25T08:15:32.481Z,1.20
2023-02-25T08:16:57.109Z,1.10
2023-02-25T08:18:19.188Z,1.10
2023-02-25T08:19:41.742Z,1.10
2023-02-25T08:21:04.531Z,1.10
2023-02-25T08:22:26.625Z,1.10
2023-02-25T08:23:49.216Z,1.00
2023-02-25T08:25:11.426Z,1.00
2023-02-25T08:26:33.743Z,0.90
2023-02-25T08:27:56.082Z,1.00
2023-02-25T08:29:18.376Z,1.10
2023-02-25T08:30:40.715Z,1.10
2023-02-25T08:32:03.646Z,1.10
2023-02-25T08:33:27.601Z,1.10
2023-02-25T08:34:51.232Z,1.10
2023-02-25T08:36:17.048Z,1.20
2023-02-25T08:37:39.212Z,1.20
2023-02-25T08:39:01.395Z,1.30
2023-02-25T08:40:23.599Z,1.30
2023-02-25T08:41:45.738Z,1.20
2023-02-25T08:43:08.676Z,1.20
2023-02-25T08:44:30.737Z,1.20
2023-02-25T08:45:52.963Z,1.20
2023-02-25T08:47:16.386Z,1.20
2023-02-25T08:48:38.514Z,1.30
2023-02-25T08:50:00.823Z,1.20
2023-02-25T08:51:24.928Z,1.20
2023-02-25T08:52:47.205Z,1.20
2023-02-25T08:54:12.850Z,1.20
2023-02-25T08:55:35.981Z,1.20
2023-02-25T08:57:00.213Z,1.30
2023-02-25T08:58:22.391Z,1.30
2023-02-25T08:59:44.483Z,1.30
2023-02-25T09:01:16.102Z,1.30
2023-02-25T09:02:41.638Z,1.30
2023-02-25T09:04:03.718Z,1.30
2023-02-25T09:05:26.299Z,1.30
2023-02-25T09:06:49.034Z,1.30
2023-02-25T09:08:11.124Z,1.30
2023-02-25T09:09:34.109Z,1.30
2023-02-25T09:10:56.232Z,1.20
2023-02-25T09:12:18.617Z,1.20
2023-02-25T09:13:40.786Z,1.20
2023-02-25T09:15:03.201Z,1.20
2023-02-25T09:16:27.672Z,1.20
2023-02-25T09:17:53.073Z,1.20
2023-02-25T09:19:17.950Z,1.20
2023-02-25T09:20:40.021Z,1.20
2023-02-25T09:22:02.158Z,1.20
2023-02-25T09:23:24.254Z,1.30
2023-02-25T09:24:46.823Z,1.40
2023-02-25T09:26:08.942Z,1.30
2023-02-25T09:27:31.141Z,1.30
2023-02-25T09:28:53.328Z,1.30
2023-02-25T09:30:15.686Z,1.40
2023-02-25T09:31:39.625Z,1.40
2023-02-25T09:33:02.392Z,1.50
2023-02-25T09:34:24.860Z,1.50
2023-02-25T09:35:46.991Z,1.50
2023-02-25T09:37:09.635Z,1.50
2023-02-25T09:38:31.731Z,1.50
2023-02-25T09:39:53.868Z,1.50
2023-02-25T09:41:41.920Z,1.50
2023-02-25T09:43:07.186Z,1.50
2023-02-25T09:44:32.331Z,1.60
2023-02-25T09:46:07.556Z,1.70
2023-02-25T09:47:43.824Z,1.70
2023-02-25T09:49:20.574Z,1.70
2023-02-25T09:50:52.067Z,1.80
2023-02-25T09:52:42.092Z,1.90
2023-02-25T09:54:13.038Z,1.90
2023-02-25T09:55:39.084Z,2.00
2023-02-25T09:57:04.422Z,2.10
2023-02-25T09:58:56.697Z,2.20
2023-02-25T10:00:21.236Z,2.20
2023-02-25T10:02:25.719Z,2.30
2023-02-25T10:03:50.755Z,2.30
2023-02-25T10:05:33.360Z,2.20
2023-02-25T10:06:56.330Z,2.10
2023-02-25T10:08:21.161Z,2.20
2023-02-25T10:09:50.271Z,2.20
2023-02-25T10:11:30.560Z,2.20
2023-02-25T10:13:08.069Z,2.30
2023-02-25T10:14:42.218Z,2.50
2023-02-25T10:16:29.180Z,2.50
2023-02-25T10:18:19.427Z,2.60
2023-02-25T10:19:48.258Z,2.80
2023-02-25T10:21:24.698Z,2.80
2023-02-25T10:23:15.083Z,2.90
2023-02-25T10:24:44.100Z,2.90
2023-02-25T10:26:38.959Z,2.90
2023-02-25T10:28:06.119Z,2.90
2023-02-25T10:29:50.387Z,3.00
2023-02-25T10:31:21.104Z,2.90
2023-02-25T10:32:46.021Z,2.80
2023-02-25T10:34:26.962Z,2.70
2023-02-25T10:36:14.720Z,2.50
2023-02-25T10:37:39.771Z,2.40
2023-02-25T10:39:02.066Z,2.30
2023-02-25T10:40:29.103Z,2.30
2023-02-25T10:41:51.530Z,2.20
2023-02-25T10:43:23.320Z,2.20
2023-02-25T10:44:46.452Z,2.20
2023-02-25T10:46:20.234Z,2.20
2023-02-25T10:47:46.083Z,2.20
2023-02-25T10:49:23.189Z,2.30
2023-02-25T10:51:03.090Z,2.20
2023-02-25T10:52:25.176Z,2.20
2023-02-25T10:53:53.048Z,2.10
2023-02-25T10:55:25.451Z,2.10
2023-02-25T10:56:49.692Z,2.10
2023-02-25T10:58:35.052Z,2.20
2023-02-25T11:00:06.837Z,2.20
2023-02-25T11:01:38.423Z,2.20
2023-02-25T11:03:01.954Z,2.20
2023-02-25T11:04:29.394Z,2.10
2023-02-25T11:05:51.464Z,2.20
2023-02-25T11:07:31.869Z,2.30
2023-02-25T11:08:58.334Z,2.30
2023-02-25T11:10:22.383Z,2.40
2023-02-25T11:11:53.022Z,2.40
2023-02-25T11:13:29.720Z,2.50
2023-02-25T11:14:51.790Z,2.50
2023-02-25T11:16:14.785Z,2.50
2023-02-25T11:17:36.917Z,2.50
2023-02-25T11:19:01.954Z,2.40
2023-02-25T11:20:27.182Z,2.50
2023-02-25T11:21:49.883Z,2.40
2023-02-25T11:23:28.342Z,2.20
2023-02-25T11:25:17.909Z,2.20
2023-02-25T11:26:47.523Z,2.20
2023-02-25T11:28:44.571Z,2.30
2023-02-25T11:30:12.532Z,2.10
2023-02-25T11:31:40.216Z,2.10
2023-02-25T11:33:09.164Z,2.20
2023-02-25T11:34:32.548Z,2.20
2023-02-25T11:35:57.499Z,2.30
2023-02-25T11:37:43.298Z,2.40
2023-02-25T11:39:25.123Z,2.40
2023-02-25T11:40:47.165Z,2.40
2023-02-25T11:42:30.160Z,2.40
2023-02-25T11:43:54.212Z,2.50
2023-02-25T11:45:17.739Z,2.50
2023-02-25T11:46:39.927Z,2.50
2023-02-25T11:48:17.048Z,2.40
2023-02-25T11:49:40.181Z,2.40
2023-02-25T11:51:26.280Z,2.50
2023-02-25T11:53:29.051Z,2.40
2023-02-25T11:55:32.240Z,2.40
2023-02-25T11:57:31.952Z,2.50
2023-02-25T11:59:18.695Z,2.60
2023-02-25T12:00:56.186Z,2.70
2023-02-25T12:02:37.028Z,2.70
2023-02-25T12:04:18.449Z,2.60
2023-02-25T12:05:50.855Z,2.70
2023-02-25T12:08:05.110Z,2.70
2023-02-25T12:10:07.550Z,2.60
2023-02-25T12:11:42.147Z,2.50
2023-02-25T12:13:25.146Z,2.70
2023-02-25T12:15:06.840Z,2.80
2023-02-25T12:16:53.037Z,2.80
2023-02-25T12:18:39.370Z,2.80
2023-02-25T12:20:25.886Z,2.70
2023-02-25T12:22:12.822Z,2.80
2023-02-25T12:23:58.882Z,2.90
2023-02-25T12:25:45.297Z,2.80
2023-02-25T12:27:10.327Z,2.80
2023-02-25T12:29:14.490Z,2.80
2023-02-25T12:30:51.565Z,2.80
2023-02-25T12:32:31.468Z,2.70
2023-02-25T12:34:16.117Z,2.70
2023-02-25T12:35:50.383Z,2.60
2023-02-25T12:37:24.778Z,2.50
2023-02-25T12:39:06.047Z,2.50
2023-02-25T12:41:01.291Z,2.50
2023-02-25T12:42:30.655Z,2.50
2023-02-25T12:44:10.141Z,2.40
2023-02-25T12:45:38.156Z,2.40
2023-02-25T12:47:12.418Z,2.30
2023-02-25T12:49:11.919Z,2.20
2023-02-25T12:50:39.438Z,2.00
2023-02-25T12:52:37.132Z,2.10
2023-02-25T12:54:40.679Z,2.10
2023-02-25T12:56:26.707Z,2.00
2023-02-25T12:58:09.521Z,1.90
2023-02-25T13:00:05.053Z,2.00
2023-02-25T13:01:43.962Z,2.10
2023-02-25T13:03:15.654Z,2.10
2023-02-25T13:04:43.554Z,2.20
2023-02-25T13:06:26.800Z,2.20
2023-02-25T13:08:07.017Z,2.30
2023-02-25T13:09:52.578Z,2.30
2023-02-25T13:11:23.419Z,2.40
2023-02-25T13:12:54.543Z,2.40
2023-02-25T13:14:16.660Z,2.40
2023-02-25T13:16:18.158Z,2.40
2023-02-25T13:18:05.838Z,2.40
2023-02-25T13:20:06.073Z,2.40
2023-02-25T13:22:04.694Z,2.40
2023-02-25T13:23:32.715Z,2.50
2023-02-25T13:25:04.551Z,2.60
2023-02-25T13:27:02.399Z,2.60
2023-02-25T13:28:55.420Z,2.60
2023-02-25T13:30:57.998Z,2.60
2023-02-25T13:32:34.985Z,2.70
2023-02-25T13:34:25.475Z,2.70
2023-02-25T13:36:02.643Z,2.70
2023-02-25T13:37:30.504Z,2.70
2023-02-25T13:39:14.426Z,2.70
2023-02-25T13:41:00.230Z,2.70
2023-02-25T13:42:49.927Z,2.60
2023-02-25T13:44:15.062Z,2.50
2023-02-25T13:46:14.553Z,2.50
2023-02-25T13:47:48.790Z,2.50
2023-02-25T13:49:17.163Z,2.40
2023-02-25T13:50:59.676Z,2.40
2023-02-25T13:52:36.712Z,2.40
2023-02-25T13:54:13.614Z,2.40
2023-02-25T13:56:07.305Z,2.40
2023-02-25T13:57:54.903Z,2.40
2023-02-25T13:59:38.649Z,2.40
2023-02-25T14:01:16.793Z,2.30
2023-02-25T14:02:57.463Z,2.20
2023-02-25T14:04:25.594Z,2.20
2023-02-25T14:06:05.808Z,2.10
2023-02-25T14:07:51.504Z,2.00
2023-02-25T14:09:44.188Z,2.00
2023-02-25T14:11:31.063Z,2.00
2023-02-25T14:13:20.972Z,2.10
2023-02-25T14:15:07.328Z,2.10
2023-02-25T14:16:46.398Z,2.00
2023-02-25T14:18:31.662Z,2.20
2023-02-25T14:20:02.355Z,2.20
2023-02-25T14:21:43.178Z,2.20
2023-02-25T14:23:05.220Z,2.30
2023-02-25T14:24:51.909Z,2.30
2023-02-25T14:26:49.888Z,2.50
2023-02-25T14:28:40.727Z,2.50
2023-02-25T14:30:13.109Z,2.50
2023-02-25T14:31:46.866Z,2.50
2023-02-25T14:33:11.506Z,2.60
2023-02-25T14:35:03.758Z,2.60
2023-02-25T14:36:51.949Z,2.60
2023-02-25T14:38:17.737Z,2.60
2023-02-25T14:39:48.463Z,2.70
2023-02-25T14:41:52.487Z,2.70
2023-02-25T14:43:35.088Z,2.70
2023-02-25T14:45:10.739Z,2.60
2023-02-25T14:46:48.260Z,2.60
2023-02-25T14:48:25.109Z,2.70
2023-02-25T14:50:30.587Z,2.60
2023-02-25T14:52:14.435Z,2.60
2023-02-25T14:53:59.329Z,2.60
2023-02-25T14:55:30.342Z,2.40
2023-02-25T14:57:17.222Z,2.40
2023-02-25T14:59:02.719Z,2.40
2023-02-25T15:00:37.017Z,2.40
2023-02-25T15:02:36.938Z,2.30
2023-02-25T15:04:19.900Z,2.30
2023-02-25T15:05:56.753Z,2.30
2023-02-25T15:07:52.468Z,2.30
2023-02-25T15:09:29.574Z,2.30
2023-02-25T15:11:13.274Z,2.30
2023-02-25T15:13:04.611Z,2.30
2023-02-25T15:14:45.335Z,2.20
2023-02-25T15:16:17.172Z,2.20
2023-02-25T15:18:16.480Z,2.10
2023-02-25T15:19:57.421Z,2.00
2023-02-25T15:21:39.647Z,1.90
2023-02-25T15:23:09.265Z,1.80
2023-02-25T15:24:40.795Z,1.80
2023-02-25T15:26:23.620Z,1.70
2023-02-25T15:27:48.641Z,1.70
2023-02-25T15:29:28.778Z,1.70
2023-02-25T15:31:00.228Z,1.70
2023-02-25T15:32:25.238Z,1.60
2023-02-25T15:33:47.614Z,1.60
2023-02-25T15:35:14.843Z,1.70
2023-02-25T15:36:52.393Z,1.80
2023-02-25T15:38:37.828Z,1.80
2023-02-25T15:40:15.277Z,1.90
2023-02-25T15:41:38.155Z,1.90
2023-02-25T15:43:23.894Z,2.00
2023-02-25T15:44:46.359Z,1.90
2023-02-25T15:46:08.455Z,1.90
2023-02-25T15:47:30.860Z,1.90
2023-02-25T15:49:10.237Z,1.80
2023-02-25T15:50:53.255Z,1.80
2023-02-25T15:53:01.248Z,1.80
2023-02-25T15:54:29.493Z,1.80
2023-02-25T15:56:15.294Z,1.80
2023-02-25T15:57:38.917Z,1.70
2023-02-25T15:59:01.042Z,1.60
2023-02-25T16:00:48.687Z,1.60
2023-02-25T16:02:34.698Z,1.60
2023-02-25T16:03:56.962Z,1.70
2023-02-25T16:05:24.872Z,1.60
2023-02-25T16:06:47.861Z,1.60
2023-02-25T16:08:23.002Z,1.60
2023-02-25T16:09:54.284Z,1.60
2023-02-25T16:11:42.037Z,1.60
2023-02-25T16:13:04.220Z,1.60
2023-02-25T16:14:31.775Z,1.60
2023-02-25T16:15:57.357Z,1.60
2023-02-25T16:17:36.104Z,1.60
2023-02-25T16:18:59.741Z,1.60
2023-02-25T16:20:30.446Z,1.60
2023-02-25T16:21:58.108Z,1.60
2023-02-25T16:23:20.802Z,1.60
2023-02-25T16:24:48.807Z,1.60
2023-02-25T16:26:19.938Z,1.60
2023-02-25T16:28:26.654Z,1.60
2023-02-25T16:30:18.108Z,1.70
2023-02-25T16:31:58.522Z,1.70
2023-02-25T16:33:29.293Z,1.60
2023-02-25T16:35:07.619Z,1.60
2023-02-25T16:36:56.410Z,1.60
2023-02-25T16:38:33.896Z,1.60
2023-02-25T16:39:56.966Z,1.50
2023-02-25T16:41:22.242Z,1.50
2023-02-25T16:42:45.680Z,1.50
2023-02-25T16:44:08.775Z,1.40
2023-02-25T16:45:39.311Z,1.40
2023-02-25T16:47:01.962Z,1.50
2023-02-25T16:48:57.495Z,1.40
2023-02-25T16:50:23.311Z,1.40
2023-02-25T16:51:45.762Z,1.30
2023-02-25T16:53:17.388Z,1.30
2023-02-25T16:54:40.444Z,1.40
2023-02-25T16:56:02.642Z,1.40
2023-02-25T16:57:25.282Z,1.40
2023-02-25T16:59:01.006Z,1.40
2023-02-25T17:00:23.262Z,1.40
2023-02-25T17:03:04.243Z,1.40
2023-02-25T17:04:37.700Z,1.40
2023-02-25T17:06:14.446Z,1.40
2023-02-25T17:07:36.571Z,1.30
2023-02-25T17:08:58.669Z,1.30
2023-02-25T17:10:26.447Z,1.30
2023-02-25T17:11:54.960Z,1.30
2023-02-25T17:13:24.538Z,1.30
2023-02-25T17:14:49.632Z,1.20
2023-02-25T17:16:28.268Z,1.20
2023-02-25T17:17:58.318Z,1.20
2023-02-25T17:19:22.292Z,1.30
2023-02-25T17:20:44.859Z,1.20
2023-02-25T17:22:07.014Z,1.30
2023-02-25T17:23:30.209Z,1.30
2023-02-25T17:24:55.479Z,1.30
2023-02-25T17:26:19.332Z,1.30
2023-02-25T17:27:42.406Z,1.30
2023-02-25T17:29:11.200Z,1.30
2023-02-25T17:30:42.552Z,1.30
2023-02-25T17:32:21.742Z,1.40
2023-02-25T17:33:50.480Z,1.30
2023-02-25T17:35:12.638Z,1.40
2023-02-25T17:36:39.255Z,1.40
2023-02-25T17:38:02.194Z,1.40
2023-02-25T17:39:24.909Z,1.30
2023-02-25T17:40:47.549Z,1.30
2023-02-25T17:42:29.600Z,1.40
2023-02-25T17:43:52.431Z,1.40
2023-02-25T17:45:44.725Z,1.40
2023-02-25T17:47:09.706Z,1.40
2023-02-25T17:48:35.709Z,1.40
2023-02-25T17:50:09.637Z,1.40
2023-02-25T17:51:37.299Z,1.40
2023-02-25T17:53:00.041Z,1.40
2023-02-25T17:54:24.322Z,1.40
2023-02-25T17:55:46.867Z,1.40
2023-02-25T17:57:21.252Z,1.40
2023-02-25T17:58:44.947Z,1.40
2023-02-25T18:00:22.847Z,1.40
2023-02-25T18:01:59.134Z,1.40
2023-02-25T18:03:25.292Z,1.40
2023-02-25T18:04:47.383Z,1.30
2023-02-25T18:06:30.351Z,1.30
2023-02-25T18:07:58.537Z,1.30
2023-02-25T18:09:39.736Z,1.30
2023-02-25T18:11:24.473Z,1.30
2023-02-25T18:12:48.324Z,1.30
2023-02-25T18:14:28.497Z,1.40
2023-02-25T18:16:17.868Z,1.40
2023-02-25T18:17:41.499Z,1.40
2023-02-25T18:19:09.590Z,1.40
2023-02-25T18:20:37.500Z,1.40
2023-02-25T18:21:59.843Z,1.40
2023-02-25T18:23:25.453Z,1.40
2023-02-25T18:24:54.408Z,1.40
2023-02-25T18:26:18.593Z,1.40
2023-02-25T18:27:40.831Z,1.40
2023-02-25T18:29:09.921Z,1.40
2023-02-25T18:30:33.067Z,1.40
2023-02-25T18:31:55.273Z,1.40
2023-02-25T18:33:18.488Z,1.50
2023-02-25T18:34:40.763Z,1.50
2023-02-25T18:36:05.993Z,1.50
2023-02-25T18:37:32.849Z,1.50
2023-02-25T18:39:00.404Z,1.50
2023-02-25T18:40:29.805Z,1.50
2023-02-25T18:41:52.016Z,1.50
2023-02-25T18:43:19.731Z,1.60
2023-02-25T18:44:42.846Z,1.60
2023-02-25T18:46:05.353Z,1.50
2023-02-25T18:47:29.773Z,1.60
2023-02-25T18:48:51.966Z,1.60
2023-02-25T18:50:14.474Z,1.60
2023-02-25T18:51:38.103Z,1.60
2023-02-25T18:53:01.256Z,1.60
2023-02-25T18:54:23.492Z,1.60
2023-02-25T18:55:46.322Z,1.60
2023-02-25T18:57:24.413Z,1.60
2023-02-25T18:58:46.567Z,1.60
2023-02-25T19:00:09.781Z,1.70
2023-02-25T19:01:33.477Z,1.70
2023-02-25T19:03:01.433Z,1.70
2023-02-25T19:04:23.483Z,1.70
2023-02-25T19:05:45.596Z,1.70
2023-02-25T19:07:11.673Z,1.70
2023-02-25T19:08:33.899Z,1.70
2023-02-25T19:09:56.276Z,1.70
2023-02-25T19:11:22.646Z,1.70
2023-02-25T19:12:48.555Z,1.70
2023-02-25T19:14:17.619Z,1.70
2023-02-25T19:15:39.715Z,1.70
2023-02-25T19:17:01.793Z,1.60
2023-02-25T19:18:24.022Z,1.70
2023-02-25T19:19:46.522Z,1.70
2023-02-25T19:21:17.865Z,1.70
2023-02-25T19:22:44.861Z,1.70
2023-02-25T19:24:10.828Z,1.70
2023-02-25T19:25:36.322Z,1.70
2023-02-25T19:26:59.951Z,1.70
2023-02-25T19:28:22.199Z,1.70
2023-02-25T19:29:44.635Z,1.70
2023-02-25T19:31:07.515Z,1.70
2023-02-25T19:32:29.771Z,1.70
2023-02-25T19:33:51.857Z,1.70
2023-02-25T19:35:14.016Z,1.80
2023-02-25T19:36:36.087Z,1.70
2023-02-25T19:37:58.597Z,1.70
2023-02-25T19:39:20.747Z,1.70
2023-02-25T19:40:44.214Z,1.70
2023-02-25T19:42:06.968Z,1.70
2023-02-25T19:43:31.502Z,1.70
2023-02-25T19:44:53.589Z,1.70
2023-02-25T19:46:17.806Z,1.70
2023-02-25T19:47:40.472Z,1.70
2023-02-25T19:49:02.860Z,1.70